createdAt,value
2023-05-22T00:01:27.446Z,101375.97
2023-05-22T00:03:52.979Z,101389.56
2023-05-22T00:06:18.454Z,101371.94
2023-05-22T00:08:42.058Z,101380.63
2023-05-22T00:11:05.862Z,101373.63
2023-05-22T00:13:29.513Z,101382.78
2023-05-22T00:15:54.141Z,101370.59
2023-05-22T00:18:17.821Z,101376.84
2023-05-22T00:20:42.818Z,101371.66
2023-05-22T00:23:10.168Z,101370.59
2023-05-22T00:25:33.823Z,101370.97
2023-05-22T00:27:57.444Z,101363.69
2023-05-22T00:30:22.209Z,101373.06
2023-05-22T00:32:46.070Z,101371.69
2023-05-22T00:35:11.308Z,101363.53
2023-05-22T00:37:36.388Z,101357.34
2023-05-22T00:40:00.159Z,101360.97
2023-05-22T00:42:24.674Z,101361.81
2023-05-22T00:44:48.694Z,101354.75
2023-05-22T00:47:12.332Z,101355.41
2023-05-22T00:49:35.998Z,101359.66
2023-05-22T00:51:59.620Z,101352.03
2023-05-22T00:54:25.057Z,101355.44
2023-05-22T00:56:49.525Z,101348.78
2023-05-22T00:59:13.435Z,101351.50
2023-05-22T01:01:42.183Z,101343.81
2023-05-22T01:04:08.185Z,101343.81
2023-05-22T01:06:32.721Z,101348.91
2023-05-22T01:08:56.326Z,101345.34
2023-05-22T01:11:27.651Z,101351.81
2023-05-22T01:14:00.143Z,101356.44
2023-05-22T01:16:32.273Z,101350.63
2023-05-22T01:19:04.229Z,101354.91
2023-05-22T01:21:56.555Z,101354.75
2023-05-22T01:24:52.018Z,101347.06
2023-05-22T01:28:02.092Z,101353.41
2023-05-22T01:30:53.875Z,101360.00
2023-05-22T01:33:19.547Z,101351.00
2023-05-22T01:35:46.794Z,101346.75
2023-05-22T01:38:12.245Z,101345.03
2023-05-22T01:40:36.009Z,101349.97
2023-05-22T01:43:01.035Z,101344.84
2023-05-22T01:45:24.634Z,101345.69
2023-05-22T01:47:50.122Z,101352.13
2023-05-22T01:50:15.534Z,101344.81
2023-05-22T01:52:53.518Z,101343.72
2023-05-22T01:55:27.521Z,101346.94
2023-05-22T01:58:00.017Z,101344.72
2023-05-22T02:00:25.819Z,101348.72
2023-05-22T02:02:58.956Z,101347.06
2023-05-22T02:05:25.380Z,101351.25
2023-05-22T02:07:49.643Z,101345.16
2023-05-22T02:10:16.013Z,101347.16
2023-05-22T02:12:40.319Z,101345.09
2023-05-22T02:15:04.570Z,101345.09
2023-05-22T02:17:28.887Z,101343.53
2023-05-22T02:19:55.214Z,101338.38
2023-05-22T02:22:18.954Z,101344.13
2023-05-22T02:24:45.095Z,101348.53
2023-05-22T02:27:09.498Z,101340.31
2023-05-22T02:29:33.236Z,101335.88
2023-05-22T02:31:56.859Z,101335.16
2023-05-22T02:34:22.883Z,101340.84
2023-05-22T02:36:51.061Z,101338.75
2023-05-22T02:39:14.738Z,101338.06
2023-05-22T02:41:38.528Z,101332.06
2023-05-22T02:44:02.349Z,101336.34
2023-05-22T02:46:25.984Z,101334.25
2023-05-22T02:48:49.669Z,101341.13
2023-05-22T02:51:15.050Z,101331.50
2023-05-22T02:53:41.535Z,101329.56
2023-05-22T02:56:05.607Z,101327.31
2023-05-22T02:58:29.206Z,101330.34
2023-05-22T03:00:54.012Z,101326.69
2023-05-22T03:03:18.488Z,101321.59
2023-05-22T03:05:42.127Z,101326.50
2023-05-22T03:08:06.765Z,101323.78
2023-05-22T03:10:31.738Z,101322.69
2023-05-22T03:12:55.452Z,101320.56
2023-05-22T03:15:19.389Z,101318.81
2023-05-22T03:17:43.858Z,101319.47
2023-05-22T03:20:09.908Z,101320.09
2023-05-22T03:22:33.661Z,101311.97
2023-05-22T03:24:57.234Z,101313.97
2023-05-22T03:27:22.274Z,101318.56
2023-05-22T03:29:46.364Z,101313.44
2023-05-22T03:32:10.231Z,101311.19
2023-05-22T03:34:33.828Z,101307.63
2023-05-22T03:36:59.066Z,101303.34
2023-05-22T03:39:22.664Z,101305.81
2023-05-22T03:41:57.293Z,101305.97
2023-05-22T03:44:23.319Z,101306.53
2023-05-22T03:46:47.880Z,101299.72
2023-05-22T03:49:12.083Z,101307.97
2023-05-22T03:51:35.717Z,101308.69
2023-05-22T03:53:59.617Z,101300.56
2023-05-22T03:56:23.196Z,101309.78
2023-05-22T03:58:46.864Z,101307.78
2023-05-22T04:01:13.880Z,101311.66
2023-05-22T04:03:37.950Z,101311.50
2023-05-22T04:06:01.603Z,101307.06
2023-05-22T04:08:25.481Z,101306.63
2023-05-22T04:10:49.064Z,101299.84
2023-05-22T04:13:12.919Z,101308.50
2023-05-22T04:15:37.039Z,101310.72
2023-05-22T04:18:02.442Z,101312.13
2023-05-22T04:20:26.125Z,101305.22
2023-05-22T04:22:49.938Z,101305.78
2023-05-22T04:25:13.484Z,101307.50
2023-05-22T04:27:38.001Z,101312.03
2023-05-22T04:30:02.366Z,101312.66
2023-05-22T04:32:26.354Z,101312.28
2023-05-22T04:34:52.511Z,101316.09
2023-05-22T04:37:16.206Z,101321.25
2023-05-22T04:39:40.333Z,101315.47
2023-05-22T04:42:05.960Z,101317.72
2023-05-22T04:44:30.626Z,101307.69
2023-05-22T04:46:57.352Z,101313.59
2023-05-22T04:49:21.192Z,101310.06
2023-05-22T04:51:46.284Z,101309.28
2023-05-22T04:54:09.862Z,101303.50
2023-05-22T04:56:36.903Z,101302.75
2023-05-22T04:59:01.537Z,101304.06
2023-05-22T05:01:27.824Z,101300.56
2023-05-22T05:03:51.631Z,101307.91
2023-05-22T05:06:17.222Z,101301.41
2023-05-22T05:08:44.286Z,101301.88
2023-05-22T05:11:07.977Z,101306.22
2023-05-22T05:13:31.564Z,101305.25
2023-05-22T05:15:56.632Z,101298.50
2023-05-22T05:18:20.263Z,101310.84
2023-05-22T05:20:44.834Z,101303.25
2023-05-22T05:23:10.401Z,101306.66
2023-05-22T05:25:38.449Z,101309.88
2023-05-22T05:28:02.407Z,101313.94
2023-05-22T05:30:26.054Z,101312.16
2023-05-22T05:33:02.616Z,101306.34
2023-05-22T05:35:32.797Z,101302.16
2023-05-22T05:38:06.941Z,101312.38
2023-05-22T05:40:31.543Z,101310.66
2023-05-22T05:42:56.596Z,101302.78
2023-05-22T05:45:22.809Z,101309.00
2023-05-22T05:47:46.732Z,101312.38
2023-05-22T05:50:12.600Z,101310.69
2023-05-22T05:52:36.272Z,101322.66
2023-05-22T05:55:06.172Z,101321.34
2023-05-22T05:57:32.063Z,101320.31
2023-05-22T05:59:57.139Z,101317.59
2023-05-22T06:02:39.266Z,101314.84
2023-05-22T06:05:09.259Z,101311.59
2023-05-22T06:07:38.105Z,101315.88
2023-05-22T06:10:03.167Z,101317.59
2023-05-22T06:12:37.905Z,101315.56
2023-05-22T06:15:04.100Z,101309.56
2023-05-22T06:17:27.874Z,101311.09
2023-05-22T06:19:51.798Z,101312.44
2023-05-22T06:22:15.438Z,101302.19
2023-05-22T06:24:41.612Z,101302.44
2023-05-22T06:27:10.603Z,101303.75
2023-05-22T06:29:34.280Z,101295.56
2023-05-22T06:31:59.336Z,101294.78
2023-05-22T06:34:25.640Z,101295.63
2023-05-22T06:36:50.453Z,101293.59
2023-05-22T06:39:16.350Z,101297.09
2023-05-22T06:42:00.236Z,101284.22
2023-05-22T06:44:43.868Z,101296.88
2023-05-22T06:47:09.428Z,101297.25
2023-05-22T06:49:33.021Z,101299.00
2023-05-22T06:51:57.134Z,101297.88
2023-05-22T06:54:21.476Z,101293.84
2023-05-22T06:56:48.510Z,101291.97
2023-05-22T06:59:14.061Z,101297.78
2023-05-22T07:01:56.200Z,101297.59
2023-05-22T07:04:45.342Z,101286.66
2023-05-22T07:07:13.942Z,101293.22
2023-05-22T07:09:37.551Z,101292.41
2023-05-22T07:12:01.809Z,101291.56
2023-05-22T07:14:26.012Z,101299.59
2023-05-22T07:16:49.795Z,101297.59
2023-05-22T07:19:19.495Z,101297.97
2023-05-22T07:21:44.761Z,101291.84
2023-05-22T07:24:11.108Z,101298.19
2023-05-22T07:26:37.896Z,101298.53
2023-05-22T07:29:06.340Z,101287.59
2023-05-22T07:31:31.162Z,101282.50
2023-05-22T07:33:54.792Z,101283.28
2023-05-22T07:36:19.211Z,101279.88
2023-05-22T07:38:44.493Z,101286.69
2023-05-22T07:41:08.092Z,101283.75
2023-05-22T07:43:32.094Z,101277.00
2023-05-22T07:45:56.875Z,101283.34
2023-05-22T07:48:24.842Z,101282.47
2023-05-22T07:50:48.599Z,101285.31
2023-05-22T07:53:12.851Z,101280.22
2023-05-22T07:55:40.900Z,101283.25
2023-05-22T07:58:05.264Z,101277.19
2023-05-22T08:00:33.680Z,101275.50
2023-05-22T08:02:57.356Z,101274.59
2023-05-22T08:05:21.204Z,101274.13
2023-05-22T08:07:44.827Z,101278.34
2023-05-22T08:10:15.345Z,101275.63
2023-05-22T08:12:40.382Z,101273.19
2023-05-22T08:15:04.190Z,101282.66
2023-05-22T08:17:28.188Z,101277.78
2023-05-22T08:19:52.074Z,101277.16
2023-05-22T08:22:15.778Z,101267.00
2023-05-22T08:24:39.352Z,101274.19
2023-05-22T08:27:03.022Z,101270.47
2023-05-22T08:29:28.024Z,101264.47
2023-05-22T08:31:52.297Z,101268.34
2023-05-22T08:34:16.009Z,101255.88
2023-05-22T08:36:39.646Z,101259.59
2023-05-22T08:39:03.753Z,101260.31
2023-05-22T08:41:28.059Z,101255.44
2023-05-22T08:43:51.660Z,101252.59
2023-05-22T08:46:17.810Z,101257.00
2023-05-22T08:48:42.063Z,101256.00
2023-05-22T08:51:07.266Z,101255.13
2023-05-22T08:53:34.294Z,101257.63
2023-05-22T08:55:58.187Z,101245.66
2023-05-22T08:58:23.237Z,101245.59
2023-05-22T09:00:47.172Z,101241.69
2023-05-22T09:03:14.073Z,101241.00
2023-05-22T09:05:39.298Z,101246.34
2023-05-22T09:08:16.092Z,101238.44
2023-05-22T09:10:43.252Z,101241.13
2023-05-22T09:13:09.299Z,101244.84
2023-05-22T09:15:33.549Z,101238.94
2023-05-22T09:17:58.910Z,101233.94
2023-05-22T09:20:24.011Z,101223.78
2023-05-22T09:22:49.438Z,101235.41
2023-05-22T09:25:20.100Z,101224.63
2023-05-22T09:27:47.233Z,101235.19
2023-05-22T09:30:12.021Z,101224.63
2023-05-22T09:32:36.154Z,101229.72
2023-05-22T09:35:05.520Z,101225.25
2023-05-22T09:37:35.547Z,101225.69
2023-05-22T09:39:59.151Z,101220.81
2023-05-22T09:42:22.890Z,101228.66
2023-05-22T09:44:50.526Z,101219.56
2023-05-22T09:47:14.191Z,101218.50
2023-05-22T09:49:42.781Z,101215.75
2023-05-22T09:52:12.488Z,101219.13
2023-05-22T09:54:44.076Z,101215.69
2023-05-22T09:57:11.750Z,101215.50
2023-05-22T09:59:40.252Z,101214.91
2023-05-22T10:02:04.257Z,101202.41
2023-05-22T10:04:34.530Z,101212.78
2023-05-22T10:07:02.375Z,101214.66
2023-05-22T10:09:32.150Z,101211.06
2023-05-22T10:12:00.109Z,101210.69
2023-05-22T10:14:25.082Z,101203.03
2023-05-22T10:16:49.738Z,101202.38
2023-05-22T10:19:13.928Z,101200.28
2023-05-22T10:21:38.373Z,101202.50
2023-05-22T10:24:03.099Z,101199.91
2023-05-22T10:26:27.454Z,101193.38
2023-05-22T10:29:00.683Z,101188.38
2023-05-22T10:31:33.670Z,101195.63
2023-05-22T10:34:26.810Z,101193.78
2023-05-22T10:37:17.066Z,101182.09
2023-05-22T10:39:55.609Z,101182.72
2023-05-22T10:42:19.308Z,101188.81
2023-05-22T10:44:44.876Z,101182.66
2023-05-22T10:47:13.481Z,101174.81
2023-05-22T10:49:37.377Z,101170.03
2023-05-22T10:52:01.209Z,101168.75
2023-05-22T10:54:42.119Z,101165.81
2023-05-22T10:57:12.822Z,101149.25
2023-05-22T10:59:36.429Z,101161.22
2023-05-22T11:02:04.141Z,101158.97
2023-05-22T11:04:27.813Z,101150.81
2023-05-22T11:07:05.535Z,101153.69
2023-05-22T11:09:30.804Z,101162.16
2023-05-22T11:12:20.752Z,101153.25
2023-05-22T11:14:48.889Z,101148.91
2023-05-22T11:17:15.364Z,101149.06
2023-05-22T11:19:41.765Z,101144.41
2023-05-22T11:22:06.790Z,101133.31
2023-05-22T11:24:35.220Z,101138.25
2023-05-22T11:27:07.813Z,101144.91
2023-05-22T11:29:32.515Z,101140.47
2023-05-22T11:31:56.458Z,101139.00
2023-05-22T11:34:22.449Z,101133.81
2023-05-22T11:36:46.593Z,101129.13
2023-05-22T11:39:10.285Z,101131.13
2023-05-22T11:41:35.195Z,101131.88
2023-05-22T11:43:58.901Z,101130.56
2023-05-22T11:46:22.536Z,101123.25
2023-05-22T11:48:46.238Z,101118.44
2023-05-22T11:51:11.729Z,101121.00
2023-05-22T11:53:36.986Z,101111.28
2023-05-22T11:56:04.544Z,101116.72
2023-05-22T11:58:29.728Z,101113.97
2023-05-22T12:00:53.313Z,101112.50
2023-05-22T12:03:17.610Z,101105.16
2023-05-22T12:05:41.347Z,101108.72
2023-05-22T12:08:06.637Z,101097.69
2023-05-22T12:10:30.245Z,101098.19
2023-05-22T12:12:53.823Z,101095.78
2023-05-22T12:15:21.180Z,101102.03
2023-05-22T12:17:44.942Z,101091.69
2023-05-22T12:20:09.103Z,101093.41
2023-05-22T12:22:32.844Z,101096.06
2023-05-22T12:24:57.943Z,101096.06
2023-05-22T12:27:21.602Z,101089.53
2023-05-22T12:29:45.265Z,101087.91
2023-05-22T12:32:12.290Z,101085.34
2023-05-22T12:34:37.074Z,101084.47
2023-05-22T12:37:00.894Z,101085.31
2023-05-22T12:39:24.427Z,101084.16
2023-05-22T12:41:49.599Z,101084.53
2023-05-22T12:44:13.449Z,101081.94
2023-05-22T12:46:37.242Z,101087.28
2023-05-22T12:49:01.092Z,101089.28
2023-05-22T12:51:27.016Z,101075.13
2023-05-22T12:53:50.697Z,101082.00
2023-05-22T12:56:14.348Z,101076.56
2023-05-22T12:58:39.274Z,101072.00
2023-05-22T13:01:02.937Z,101075.25
2023-05-22T13:03:26.484Z,101081.59
2023-05-22T13:05:50.240Z,101081.13
2023-05-22T13:08:13.840Z,101074.88
2023-05-22T13:10:38.504Z,101075.13
2023-05-22T13:13:03.765Z,101078.72
2023-05-22T13:15:29.617Z,101073.28
2023-05-22T13:17:53.303Z,101075.31
2023-05-22T13:20:17.860Z,101070.75
2023-05-22T13:22:41.945Z,101068.56
2023-05-22T13:25:06.815Z,101063.25
2023-05-22T13:27:32.834Z,101071.00
2023-05-22T13:29:57.523Z,101058.78
2023-05-22T13:32:22.785Z,101062.44
2023-05-22T13:34:46.699Z,101059.72
2023-05-22T13:37:10.966Z,101055.09
2023-05-22T13:39:34.601Z,101049.84
2023-05-22T13:41:58.278Z,101049.97
2023-05-22T13:44:22.102Z,101048.56
2023-05-22T13:46:45.861Z,101048.84
2023-05-22T13:49:11.078Z,101053.56
2023-05-22T13:51:34.957Z,101048.63
2023-05-22T13:53:58.674Z,101041.94
2023-05-22T13:56:23.539Z,101038.22
2023-05-22T13:58:47.168Z,101039.44
2023-05-22T14:01:11.484Z,101028.94
2023-05-22T14:03:36.217Z,101031.31
2023-05-22T14:06:01.621Z,101037.22
2023-05-22T14:08:26.186Z,101030.38
2023-05-22T14:10:49.764Z,101022.06
2023-05-22T14:13:13.443Z,101022.03
2023-05-22T14:15:37.035Z,101024.81
2023-05-22T14:18:00.845Z,101027.63
2023-05-22T14:20:24.545Z,101018.72
2023-05-22T14:25:19.431Z,101025.56
2023-05-22T14:27:43.023Z,101027.47
2023-05-22T14:30:13.437Z,101029.16
2023-05-22T14:32:37.134Z,101024.66
2023-05-22T14:35:00.867Z,101016.28
2023-05-22T14:37:24.465Z,101010.47
2023-05-22T14:39:49.861Z,101018.22
2023-05-22T14:42:13.597Z,101012.94
2023-05-22T14:44:37.250Z,101007.88
2023-05-22T14:47:00.890Z,101009.66
2023-05-22T14:49:24.552Z,101012.47
2023-05-22T14:51:48.443Z,101004.19
2023-05-22T14:54:13.472Z,101004.19
2023-05-22T14:56:40.125Z,100994.81
2023-05-22T14:59:03.738Z,100997.78
2023-05-22T15:01:27.578Z,100998.09
2023-05-22T15:03:51.271Z,100993.16
2023-05-22T15:06:15.243Z,101000.97
2023-05-22T15:08:38.938Z,100991.47
2023-05-22T15:11:02.537Z,100983.59
2023-05-22T15:13:27.688Z,100974.47
2023-05-22T15:15:51.367Z,100973.34
2023-05-22T15:18:15.003Z,100969.19
2023-05-22T15:20:38.944Z,100971.78
2023-05-22T15:23:03.348Z,100961.94
2023-05-22T15:25:27.450Z,100962.34
2023-05-22T15:27:51.047Z,100953.91
2023-05-22T15:30:17.127Z,100955.59
2023-05-22T15:32:40.909Z,100958.34
2023-05-22T15:35:05.652Z,100953.13
2023-05-22T15:37:32.243Z,100951.63
2023-05-22T15:39:56.217Z,100946.13
2023-05-22T15:42:19.852Z,100939.50
2023-05-22T15:44:44.076Z,100942.50
2023-05-22T15:47:09.171Z,100937.59
2023-05-22T15:49:32.797Z,100935.22
2023-05-22T15:51:56.353Z,100931.53
2023-05-22T15:54:20.148Z,100930.53
2023-05-22T15:56:43.707Z,100924.19
2023-05-22T15:59:07.367Z,100924.19
2023-05-22T16:01:31.095Z,100924.94
2023-05-22T16:03:56.163Z,100927.28
2023-05-22T16:06:19.919Z,100921.03
2023-05-22T16:08:43.527Z,100911.88
2023-05-22T16:11:07.209Z,100919.59
2023-05-22T16:13:30.907Z,100914.00
2023-05-22T16:15:54.843Z,100914.91
2023-05-22T16:18:20.581Z,100914.53
2023-05-22T16:20:45.974Z,100907.75
2023-05-22T16:23:09.711Z,100907.88
2023-05-22T16:25:33.320Z,100915.94
2023-05-22T16:27:56.957Z,100909.16
2023-05-22T16:30:21.351Z,100915.47
2023-05-22T16:32:46.276Z,100909.34
2023-05-22T16:35:11.252Z,100904.44
2023-05-22T16:37:36.728Z,100906.53
2023-05-22T16:40:00.619Z,100905.56
2023-05-22T16:42:25.440Z,100909.13
2023-05-22T16:44:49.046Z,100908.09
2023-05-22T16:47:13.080Z,100905.78
2023-05-22T16:49:36.683Z,100909.16
2023-05-22T16:52:00.302Z,100907.47
2023-05-22T16:54:25.372Z,100907.88
2023-05-22T16:56:49.110Z,100901.59
2023-05-22T16:59:12.762Z,100903.94
2023-05-22T17:01:36.636Z,100907.44
2023-05-22T17:04:00.366Z,100906.41
2023-05-22T17:06:24.120Z,100905.78
2023-05-22T17:08:47.693Z,100901.44
2023-05-22T17:11:12.857Z,100903.69
2023-05-22T17:13:39.358Z,100902.41
2023-05-22T17:16:03.131Z,100917.25
2023-05-22T17:18:26.772Z,100909.47
2023-05-22T17:20:50.999Z,100903.59
2023-05-22T17:23:14.993Z,100898.31
2023-05-22T17:25:38.736Z,100899.38
2023-05-22T17:28:03.832Z,100905.56
2023-05-22T17:30:27.442Z,100908.09
2023-05-22T17:32:53.367Z,100906.53
2023-05-22T17:35:17.205Z,100905.75
2023-05-22T17:37:40.788Z,100897.59
2023-05-22T17:40:05.211Z,100894.53
2023-05-22T17:42:28.778Z,100892.56
2023-05-22T17:44:53.747Z,100899.50
2023-05-22T17:47:18.325Z,100892.66
2023-05-22T17:49:42.022Z,100889.25
2023-05-22T17:52:05.826Z,100884.84
2023-05-22T17:54:35.368Z,100896.38
2023-05-22T17:56:59.023Z,100882.72
2023-05-22T17:59:22.636Z,100886.94
2023-05-22T18:01:47.835Z,100886.09
2023-05-22T18:04:12.538Z,100884.59
2023-05-22T18:06:36.146Z,100888.19
2023-05-22T18:09:02.151Z,100883.44
2023-05-22T18:11:26.134Z,100881.97
2023-05-22T18:13:49.821Z,100879.88
2023-05-22T18:16:13.518Z,100877.94
2023-05-22T18:18:38.576Z,100874.78
2023-05-22T18:21:04.017Z,100877.06
2023-05-22T18:23:27.592Z,100875.25
2023-05-22T18:25:51.860Z,100875.00
2023-05-22T18:28:15.469Z,100884.56
2023-05-22T18:30:39.350Z,100881.38
2023-05-22T18:33:03.788Z,100876.09
2023-05-22T18:35:28.802Z,100876.97
2023-05-22T18:37:52.412Z,100879.69
2023-05-22T18:40:16.015Z,100882.22
2023-05-22T18:42:39.699Z,100872.94
2023-05-22T18:45:03.830Z,100879.28
2023-05-22T18:47:27.513Z,100880.97
2023-05-22T18:49:51.149Z,100876.72
2023-05-22T18:52:16.286Z,100875.69
2023-05-22T18:54:39.823Z,100874.34
2023-05-22T18:57:03.453Z,100877.47
2023-05-22T18:59:27.040Z,100879.63
2023-05-22T19:01:50.618Z,100878.94
2023-05-22T19:04:14.287Z,100874.47
2023-05-22T19:06:42.122Z,100879.94
2023-05-22T19:09:07.140Z,100876.94
2023-05-22T19:11:30.731Z,100875.53
2023-05-22T19:13:54.481Z,100883.97
2023-05-22T19:16:18.192Z,100885.66
2023-05-22T19:18:41.835Z,100887.41
2023-05-22T19:21:05.572Z,100881.66
2023-05-22T19:23:29.648Z,100893.22
2023-05-22T19:25:55.682Z,100896.22
2023-05-22T19:28:19.589Z,100904.56
2023-05-22T19:30:43.580Z,100899.03
2023-05-22T19:33:09.060Z,100894.81
2023-05-22T19:35:32.790Z,100899.78
2023-05-22T19:37:56.358Z,100907.44
2023-05-22T19:40:20.354Z,100903.47
2023-05-22T19:42:45.520Z,100900.69
2023-05-22T19:45:10.528Z,100906.72
2023-05-22T19:47:34.229Z,100900.16
2023-05-22T19:49:57.832Z,100904.44
2023-05-22T19:52:21.456Z,100906.88
2023-05-22T19:54:45.160Z,100905.97
2023-05-22T19:57:08.735Z,100906.63
2023-05-22T19:59:36.523Z,100906.56
2023-05-22T20:02:00.663Z,100902.91
2023-05-22T20:04:24.299Z,100906.41
2023-05-22T20:06:48.476Z,100903.03
2023-05-22T20:09:12.505Z,100907.22
2023-05-22T20:11:36.196Z,100906.03
2023-05-22T20:13:59.775Z,100909.63
2023-05-22T20:16:29.286Z,100906.03
2023-05-22T20:18:54.182Z,100907.06
2023-05-22T20:21:18.921Z,100908.66
2023-05-22T20:23:42.520Z,100915.28
2023-05-22T20:26:06.929Z,100908.84
2023-05-22T20:28:30.767Z,100916.13
2023-05-22T20:30:54.375Z,100917.91
2023-05-22T20:33:19.439Z,100912.91
2023-05-22T20:35:43.620Z,100914.41
2023-05-22T20:38:08.736Z,100908.94
2023-05-22T20:40:33.350Z,100913.44
2023-05-22T20:42:57.938Z,100909.88
2023-05-22T20:45:21.533Z,100910.06
2023-05-22T20:47:45.220Z,100914.19
2023-05-22T20:50:11.491Z,100911.16
2023-05-22T20:52:37.317Z,100911.31
2023-05-22T20:55:01.120Z,100912.66
2023-05-22T20:57:25.000Z,100915.19
2023-05-22T20:59:48.631Z,100911.56
2023-05-22T21:02:12.198Z,100915.72
2023-05-22T21:04:35.808Z,100914.53
2023-05-22T21:07:00.792Z,100911.31
2023-05-22T21:09:24.637Z,100908.13
2023-05-22T21:11:48.387Z,100913.75
2023-05-22T21:14:12.008Z,100911.25
2023-05-22T21:16:39.156Z,100916.06
2023-05-22T21:19:03.584Z,100922.41
2023-05-22T21:21:27.922Z,100919.88
2023-05-22T21:23:53.190Z,100922.09
2023-05-22T21:26:18.334Z,100918.88
2023-05-22T21:28:43.778Z,100919.44
2023-05-22T21:31:07.950Z,100919.97
2023-05-22T21:33:31.534Z,100914.31
2023-05-22T21:35:55.763Z,100908.63
2023-05-22T21:38:19.336Z,100919.91
2023-05-22T21:40:44.334Z,100914.66
2023-05-22T21:43:08.001Z,100907.66
2023-05-22T21:45:31.558Z,100910.06
2023-05-22T21:47:55.202Z,100907.53
2023-05-22T21:50:19.098Z,100900.88
2023-05-22T21:52:44.205Z,100915.56
2023-05-22T21:55:08.849Z,100911.84
2023-05-22T21:57:33.928Z,100908.44
2023-05-22T21:59:57.588Z,100904.88
2023-05-22T22:02:21.154Z,100915.41
2023-05-22T22:04:44.968Z,100905.03
2023-05-22T22:07:08.534Z,100903.38
2023-05-22T22:09:32.208Z,100907.59
2023-05-22T22:11:55.987Z,100896.91
2023-05-22T22:14:20.962Z,100900.66
2023-05-22T22:16:45.461Z,100905.59
2023-05-22T22:19:10.001Z,100898.28
2023-05-22T22:21:34.291Z,100897.28
2023-05-22T22:23:57.892Z,100898.66
2023-05-22T22:26:21.781Z,100888.41
2023-05-22T22:28:45.375Z,100889.50
2023-05-22T22:31:10.346Z,100894.94
2023-05-22T22:33:33.941Z,100890.03
2023-05-22T22:35:58.337Z,100887.31
2023-05-22T22:38:21.983Z,100881.69
2023-05-22T22:40:45.699Z,100879.97
2023-05-22T22:43:09.283Z,100879.66
2023-05-22T22:45:33.423Z,100877.28
2023-05-22T22:47:58.467Z,100875.94
2023-05-22T22:50:24.133Z,100875.25
2023-05-22T22:52:47.902Z,100873.56
2023-05-22T22:55:12.132Z,100871.03
2023-05-22T22:57:36.067Z,100872.88
2023-05-22T22:59:59.873Z,100863.69
2023-05-22T23:02:23.498Z,100869.50
2023-05-22T23:04:48.594Z,100850.47
2023-05-22T23:07:12.252Z,100849.78
2023-05-22T23:09:35.905Z,100852.47
2023-05-22T23:11:59.622Z,100853.53
2023-05-22T23:14:24.818Z,100853.34
2023-05-22T23:16:48.432Z,100855.22
2023-05-22T23:19:13.822Z,100846.56
2023-05-22T23:21:39.021Z,100838.22
2023-05-22T23:24:04.251Z,100844.69
2023-05-22T23:26:28.744Z,100843.00
2023-05-22T23:28:52.355Z,100839.59
2023-05-22T23:31:16.306Z,100834.16
2023-05-22T23:33:40.087Z,100841.66
2023-05-22T23:36:03.717Z,100829.44
2023-05-22T23:38:29.137Z,100826.88
2023-05-22T23:40:52.716Z,100813.84
2023-05-22T23:43:16.806Z,100804.63
2023-05-22T23:45:41.908Z,100811.63
2023-05-22T23:48:05.765Z,100804.63
2023-05-22T23:50:29.379Z,100805.69
2023-05-22T23:52:53.255Z,100799.91
2023-05-22T23:55:18.267Z,100792.75
2023-05-22T23:57:42.123Z,100786.47
